sensor_id;sensor_type;location;lat;lon;timestamp;temperature;humidity
21267;DHT22;10791;53.108;18.326;2023-03-18T00:00:49;5.00;90.90
21267;DHT22;10791;53.108;18.326;2023-03-18T00:06:02;5.00;91.00
21267;DHT22;10791;53.108;18.326;2023-03-18T00:11:06;5.00;91.30
21267;DHT22;10791;53.108;18.326;2023-03-18T00:16:10;5.00;91.70
21267;DHT22;10791;53.108;18.326;2023-03-18T00:21:14;4.90;91.90
21267;DHT22;10791;53.108;18.326;2023-03-18T00:26:18;4.90;92.10
21267;DHT22;10791;53.108;18.326;2023-03-18T00:31:22;4.80;92.40
21267;DHT22;10791;53.108;18.326;2023-03-18T00:36:26;4.80;92.60
21267;DHT22;10791;53.108;18.326;2023-03-18T00:41:30;4.80;92.90
21267;DHT22;10791;53.108;18.326;2023-03-18T00:46:36;4.70;93.20
21267;DHT22;10791;53.108;18.326;2023-03-18T00:51:40;4.60;93.70
21267;DHT22;10791;53.108;18.326;2023-03-18T00:56:45;4.60;94.10
21267;DHT22;10791;53.108;18.326;2023-03-18T01:01:49;4.50;94.40
21267;DHT22;10791;53.108;18.326;2023-03-18T01:06:52;4.40;94.80
21267;DHT22;10791;53.108;18.326;2023-03-18T01:11:55;4.40;94.80
21267;DHT22;10791;53.108;18.326;2023-03-18T01:16:59;4.40;95.30
21267;DHT22;10791;53.108;18.326;2023-03-18T01:22:03;4.30;95.50
21267;DHT22;10791;53.108;18.326;2023-03-18T01:27:07;4.30;95.50
21267;DHT22;10791;53.108;18.326;2023-03-18T01:32:11;4.30;95.70
21267;DHT22;10791;53.108;18.326;2023-03-18T01:37:15;4.20;96.30
21267;DHT22;10791;53.108;18.326;2023-03-18T01:42:19;4.20;96.40
21267;DHT22;10791;53.108;18.326;2023-03-18T01:47:25;4.20;96.40
21267;DHT22;10791;53.108;18.326;2023-03-18T01:52:30;4.10;96.60
21267;DHT22;10791;53.108;18.326;2023-03-18T01:57:34;4.10;96.90
21267;DHT22;10791;53.108;18.326;2023-03-18T02:02:40;4.00;97.30
21267;DHT22;10791;53.108;18.326;2023-03-18T02:07:44;4.00;97.80
21267;DHT22;10791;53.108;18.326;2023-03-18T02:12:58;4.00;98.10
21267;DHT22;10791;53.108;18.326;2023-03-18T02:18:37;3.90;98.30
21267;DHT22;10791;53.108;18.326;2023-03-18T02:29:00;3.90;99.10
21267;DHT22;10791;53.108;18.326;2023-03-18T02:34:06;3.80;99.30
21267;DHT22;10791;53.108;18.326;2023-03-18T02:39:14;3.80;99.80
21267;DHT22;10791;53.108;18.326;2023-03-18T02:44:19;3.70;99.80
21267;DHT22;10791;53.108;18.326;2023-03-18T02:49:24;3.70;99.90
21267;DHT22;10791;53.108;18.326;2023-03-18T02:54:30;3.70;99.90
21267;DHT22;10791;53.108;18.326;2023-03-18T02:59:33;3.70;99.90
21267;DHT22;10791;53.108;18.326;2023-03-18T03:04:36;3.70;99.90
21267;DHT22;10791;53.108;18.326;2023-03-18T03:09:40;3.60;99.90
21267;DHT22;10791;53.108;18.326;2023-03-18T03:14:44;3.60;99.90
21267;DHT22;10791;53.108;18.326;2023-03-18T03:19:47;3.60;99.90
21267;DHT22;10791;53.108;18.326;2023-03-18T03:24:51;3.60;99.90
21267;DHT22;10791;53.108;18.326;2023-03-18T03:29:54;3.60;99.90
21267;DHT22;10791;53.108;18.326;2023-03-18T03:34:57;3.60;99.90
21267;DHT22;10791;53.108;18.326;2023-03-18T03:40:00;3.60;99.90
21267;DHT22;10791;53.108;18.326;2023-03-18T03:45:05;3.60;99.90
21267;DHT22;10791;53.108;18.326;2023-03-18T03:50:10;3.60;99.90
21267;DHT22;10791;53.108;18.326;2023-03-18T03:55:17;3.60;99.90
21267;DHT22;10791;53.108;18.326;2023-03-18T04:00:22;3.70;99.90
21267;DHT22;10791;53.108;18.326;2023-03-18T04:05:29;3.60;99.90
21267;DHT22;10791;53.108;18.326;2023-03-18T04:10:32;3.70;99.90
21267;DHT22;10791;53.108;18.326;2023-03-18T04:15:38;3.60;99.90
21267;DHT22;10791;53.108;18.326;2023-03-18T04:20:42;3.60;99.90
21267;DHT22;10791;53.108;18.326;2023-03-18T04:25:46;3.60;99.90
21267;DHT22;10791;53.108;18.326;2023-03-18T04:30:49;3.60;99.90
21267;DHT22;10791;53.108;18.326;2023-03-18T04:35:53;3.60;99.90
21267;DHT22;10791;53.108;18.326;2023-03-18T04:40:56;3.60;99.90
21267;DHT22;10791;53.108;18.326;2023-03-18T04:45:59;3.50;99.90
21267;DHT22;10791;53.108;18.326;2023-03-18T04:51:04;3.50;99.90
21267;DHT22;10791;53.108;18.326;2023-03-18T04:56:07;3.50;99.90
21267;DHT22;10791;53.108;18.326;2023-03-18T05:01:10;3.40;99.90
21267;DHT22;10791;53.108;18.326;2023-03-18T05:06:23;3.30;99.90
21267;DHT22;10791;53.108;18.326;2023-03-18T05:11:27;3.30;99.90
21267;DHT22;10791;53.108;18.326;2023-03-18T05:16:30;3.40;99.90
21267;DHT22;10791;53.108;18.326;2023-03-18T05:21:34;3.30;99.90
21267;DHT22;10791;53.108;18.326;2023-03-18T05:26:38;3.30;99.90
21267;DHT22;10791;53.108;18.326;2023-03-18T05:31:41;3.30;99.90
21267;DHT22;10791;53.108;18.326;2023-03-18T05:36:44;3.30;99.90
21267;DHT22;10791;53.108;18.326;2023-03-18T05:41:47;3.30;99.90
21267;DHT22;10791;53.108;18.326;2023-03-18T05:46:50;3.40;99.90
21267;DHT22;10791;53.108;18.326;2023-03-18T05:51:54;3.50;99.90
21267;DHT22;10791;53.108;18.326;2023-03-18T05:56:58;3.50;99.90
21267;DHT22;10791;53.108;18.326;2023-03-18T06:02:01;3.60;99.90
21267;DHT22;10791;53.108;18.326;2023-03-18T06:07:05;3.70;99.90
21267;DHT22;10791;53.108;18.326;2023-03-18T06:12:08;3.70;99.90
21267;DHT22;10791;53.108;18.326;2023-03-18T06:17:11;3.80;99.90
21267;DHT22;10791;53.108;18.326;2023-03-18T06:22:15;3.90;99.90
21267;DHT22;10791;53.108;18.326;2023-03-18T06:27:19;4.00;99.90
21267;DHT22;10791;53.108;18.326;2023-03-18T06:32:22;4.20;99.90
21267;DHT22;10791;53.108;18.326;2023-03-18T06:37:25;4.30;99.90
21267;DHT22;10791;53.108;18.326;2023-03-18T06:42:30;4.50;99.90
21267;DHT22;10791;53.108;18.326;2023-03-18T06:47:33;4.60;99.90
21267;DHT22;10791;53.108;18.326;2023-03-18T06:52:37;4.80;99.10
21267;DHT22;10791;53.108;18.326;2023-03-18T06:57:41;4.90;97.90
21267;DHT22;10791;53.108;18.326;2023-03-18T07:02:44;5.00;97.00
21267;DHT22;10791;53.108;18.326;2023-03-18T07:07:47;5.10;96.90
21267;DHT22;10791;53.108;18.326;2023-03-18T07:12:51;5.10;96.20
21267;DHT22;10791;53.108;18.326;2023-03-18T07:17:54;5.10;96.30
21267;DHT22;10791;53.108;18.326;2023-03-18T07:22:57;5.20;96.20
21267;DHT22;10791;53.108;18.326;2023-03-18T07:28:01;5.40;96.00
21267;DHT22;10791;53.108;18.326;2023-03-18T07:33:05;5.60;96.30
21267;DHT22;10791;53.108;18.326;2023-03-18T07:38:09;5.80;95.00
21267;DHT22;10791;53.108;18.326;2023-03-18T07:43:13;5.90;94.20
21267;DHT22;10791;53.108;18.326;2023-03-18T07:48:17;5.80;94.50
21267;DHT22;10791;53.108;18.326;2023-03-18T07:53:21;5.80;95.20
21267;DHT22;10791;53.108;18.326;2023-03-18T07:58:24;5.90;94.90
21267;DHT22;10791;53.108;18.326;2023-03-18T08:03:28;5.90;94.90
21267;DHT22;10791;53.108;18.326;2023-03-18T08:08:31;6.30;95.10
21267;DHT22;10791;53.108;18.326;2023-03-18T08:13:37;6.60;93.10
21267;DHT22;10791;53.108;18.326;2023-03-18T08:18:41;6.80;92.90
21267;DHT22;10791;53.108;18.326;2023-03-18T08:23:44;7.00;92.60
21267;DHT22;10791;53.108;18.326;2023-03-18T08:28:51;7.20;92.20
21267;DHT22;10791;53.108;18.326;2023-03-18T08:33:57;7.50;91.00
21267;DHT22;10791;53.108;18.326;2023-03-18T08:39:07;7.70;90.90
21267;DHT22;10791;53.108;18.326;2023-03-18T08:44:12;7.90;90.20
21267;DHT22;10791;53.108;18.326;2023-03-18T08:49:15;8.20;89.50
21267;DHT22;10791;53.108;18.326;2023-03-18T08:54:19;8.40;84.90
21267;DHT22;10791;53.108;18.326;2023-03-18T08:59:23;8.80;84.70
21267;DHT22;10791;53.108;18.326;2023-03-18T09:04:27;9.10;80.70
21267;DHT22;10791;53.108;18.326;2023-03-18T09:09:31;9.30;80.60
21267;DHT22;10791;53.108;18.326;2023-03-18T09:14:45;9.20;78.70
21267;DHT22;10791;53.108;18.326;2023-03-18T09:19:50;9.20;78.70
21267;DHT22;10791;53.108;18.326;2023-03-18T09:24:54;9.20;79.40
21267;DHT22;10791;53.108;18.326;2023-03-18T09:30:01;9.20;79.00
21267;DHT22;10791;53.108;18.326;2023-03-18T09:35:32;9.30;79.40
21267;DHT22;10791;53.108;18.326;2023-03-18T09:40:49;9.20;79.10
21267;DHT22;10791;53.108;18.326;2023-03-18T09:52:01;9.60;78.70
21267;DHT22;10791;53.108;18.326;2023-03-18T09:57:21;9.90;77.70
21267;DHT22;10791;53.108;18.326;2023-03-18T10:02:34;10.20;79.70
21267;DHT22;10791;53.108;18.326;2023-03-18T10:07:46;10.50;76.90
21267;DHT22;10791;53.108;18.326;2023-03-18T10:12:59;10.50;75.90
21267;DHT22;10791;53.108;18.326;2023-03-18T10:18:38;10.70;75.80
21267;DHT22;10791;53.108;18.326;2023-03-18T12:26:39;12.50;68.10
21267;DHT22;10791;53.108;18.326;2023-03-18T12:44:40;12.90;65.80
21267;DHT22;10791;53.108;18.326;2023-03-18T12:49:42;13.10;66.30
21267;DHT22;10791;53.108;18.326;2023-03-18T13:52:44;13.20;65.40
21267;DHT22;10791;53.108;18.326;2023-03-18T13:58:46;13.40;65.80
21267;DHT22;10791;53.108;18.326;2023-03-18T14:36:09;13.90;63.50
21267;DHT22;10791;53.108;18.326;2023-03-18T14:54:40;13.60;64.10
21267;DHT22;10791;53.108;18.326;2023-03-18T14:59:45;13.90;63.60
21267;DHT22;10791;53.108;18.326;2023-03-18T15:05:00;14.20;63.50
21267;DHT22;10791;53.108;18.326;2023-03-18T15:16:03;13.80;62.70
21267;DHT22;10791;53.108;18.326;2023-03-18T15:21:36;13.70;64.90
21267;DHT22;10791;53.108;18.326;2023-03-18T15:46:30;13.20;67.00
21267;DHT22;10791;53.108;18.326;2023-03-18T15:52:46;13.10;66.80
21267;DHT22;10791;53.108;18.326;2023-03-18T15:58:36;13.00;66.90
21267;DHT22;10791;53.108;18.326;2023-03-18T16:11:09;12.90;68.00
21267;DHT22;10791;53.108;18.326;2023-03-18T16:16:20;12.70;68.70
